Time;durP1;ratioP1;P1;durP2;ratioP2;P2;SDS_P1;SDS_P2;PMS_P1;PMS_P2;Temp;Humidity;BMP_temperature;BMP_pressure;BME280_temperature;BME280_humidity;BME280_pressure;Samples;Min_cycle;Max_cycle;Signal;HPM_P1;HPM_P2
2023/08/19 00:01:38;;;;;;;;;;;;;;;-140.72;100.00;52423.31;6277286;22;19965;-68
2023/08/19 00:04:03;;;;;;;;;;;;;;;-140.72;100.00;52437.53;6277945;22;19960;-68
2023/08/19 00:06:31;;;;;;;;;;;;;;;-140.72;100.00;52480.16;6276414;22;19917;-68
2023/08/19 00:08:57;;;;;;;;;;;;;;;-140.72;100.00;52423.31;6276328;22;19915;-68
2023/08/19 00:11:22;;;;;;;;;;;;;;;-140.72;100.00;52455.78;6277860;22;20339;-68
2023/08/19 00:13:47;;;;;;;;;;;;;;;-140.72;100.00;52439.56;6277951;22;19911;-68
2023/08/19 00:16:12;;;;;;;;;;;;;;;-140.72;100.00;52429.41;6277757;22;19915;-68
2023/08/19 00:18:38;;;;;;;;;;;;;;;-140.72;100.00;52480.16;6278143;22;20338;-68
2023/08/19 00:21:11;;;;;;;;;;;;;;;-140.72;100.00;52476.09;6277961;22;20428;-68
2023/08/19 00:23:36;;;;;;;;;;;;;;;-140.72;100.00;52498.41;6278394;22;19915;-68
2023/08/19 00:26:01;;;;;;;;;;;;;;;-140.72;100.00;52453.75;6277740;22;19912;-68
2023/08/19 00:28:27;;;;;;;;;;;;;;;-140.72;100.00;52492.31;6276531;22;19915;-67
2023/08/19 00:30:52;;;;;;;;;;;;;;;-140.72;100.00;52516.66;6277699;22;19912;-68
2023/08/19 00:33:17;;;;;;;;;;;;;;;-140.72;100.00;52472.03;6301932;22;19961;-68
2023/08/19 00:35:49;;;;;;;;;;;;;;;-140.72;100.00;52484.19;6275935;22;19964;-67
2023/08/19 00:38:15;;;;;;;;;;;;;;;-140.72;100.00;52443.63;6301972;22;19915;-68
2023/08/19 00:40:40;;;;;;;;;;;;;;;-140.72;100.00;52494.34;6301990;22;19918;-68
2023/08/19 00:43:05;;;;;;;;;;;;;;;-140.72;100.00;52443.63;6277864;22;19937;-69
2023/08/19 00:45:30;;;;;;;;;;;;;;;-140.72;100.00;52486.22;6277855;22;19961;-68
2023/08/19 00:47:56;;;;;;;;;;;;;;;-140.72;100.00;52480.16;6277749;22;19938;-68
2023/08/19 00:50:24;;;;;;;;;;;;;;;-140.72;100.00;52472.03;6277762;22;20248;-68
2023/08/19 00:52:49;;;;;;;;;;;;;;;-140.72;100.00;52447.69;6276382;22;19922;-68
2023/08/19 00:55:14;;;;;;;;;;;;;;;-140.72;100.00;52461.88;6275784;22;19911;-68
2023/08/19 00:57:40;;;;;;;;;;;;;;;-140.72;100.00;52445.66;6275894;22;19915;-68
2023/08/19 01:00:05;;;;;;;;;;;;;;;-140.72;100.00;52459.84;6275823;22;19934;-68
2023/08/19 01:02:31;;;;;;;;;;;;;;;-140.72;100.00;52457.81;6277502;22;20236;-68
2023/08/19 01:04:56;;;;;;;;;;;;;;;-140.72;100.00;52443.63;6275487;22;19919;-68
2023/08/19 01:07:28;;;;;;;;;;;;;;;-140.72;100.00;52463.91;6277395;22;20379;-68
2023/08/19 01:10:19;;;;;;;;;;;;;;;-140.72;100.00;52439.56;6276262;22;19918;-68
2023/08/19 01:12:50;;;;;;;;;;;;;;;-140.72;100.00;52484.19;6275649;22;19912;-68
2023/08/19 01:15:36;;;;;;;;;;;;;;;-140.72;100.00;52480.16;6275313;22;19911;-68
2023/08/19 01:18:03;;;;;;;;;;;;;;;-140.72;100.00;52459.84;6277143;22;19918;-68
2023/08/19 01:20:31;;;;;;;;;;;;;;;-140.72;100.00;52461.88;6276823;22;19911;-68
2023/08/19 01:23:16;;;;;;;;;;;;;;;-140.72;100.00;52455.78;6274439;22;20328;-68
2023/08/19 01:25:42;;;;;;;;;;;;;;;-140.72;100.00;52457.81;6275416;22;19911;-68
2023/08/19 01:28:07;;;;;;;;;;;;;;;-140.72;100.00;52476.09;6274934;22;20307;-67
2023/08/19 01:30:33;;;;;;;;;;;;;;;-140.72;100.00;52439.56;6276503;22;20251;-68
2023/08/19 01:32:59;;;;;;;;;;;;;;;-140.72;100.00;52463.91;6300460;22;19912;-67
2023/08/19 01:35:25;;;;;;;;;;;;;;;-140.72;100.00;52498.41;6300563;22;19915;-68
2023/08/19 01:37:54;;;;;;;;;;;;;;;-140.72;100.00;52496.38;6276846;22;20052;-68
2023/08/19 01:40:20;;;;;;;;;;;;;;;-140.72;100.00;52451.72;6275140;22;19912;-68
2023/08/19 01:42:45;;;;;;;;;;;;;;;-140.72;100.00;52467.97;6276944;22;19918;-68
2023/08/19 01:45:11;;;;;;;;;;;;;;;-140.72;100.00;52451.72;6276751;22;19911;-68
2023/08/19 01:47:37;;;;;;;;;;;;;;;-140.72;100.00;52459.84;6274232;22;20669;-68
2023/08/19 01:50:02;;;;;;;;;;;;;;;-140.72;100.00;52443.63;6276810;22;19918;-68
2023/08/19 01:52:28;;;;;;;;;;;;;;;-140.72;100.00;52449.72;6276481;22;19915;-67
2023/08/19 01:54:53;;;;;;;;;;;;;;;-140.72;100.00;52427.38;6301447;22;19986;-68
2023/08/19 01:57:18;;;;;;;;;;;;;;;-140.72;100.00;52476.09;6300693;22;19911;-67
2023/08/19 01:59:43;;;;;;;;;;;;;;;-140.72;100.00;52474.06;6276825;22;20243;-67
2023/08/19 02:02:08;;;;;;;;;;;;;;;-140.72;100.00;52476.09;6276453;22;19911;-68
2023/08/19 02:04:34;;;;;;;;;;;;;;;-140.72;100.00;52482.16;6276432;22;20273;-67
2023/08/19 02:07:00;;;;;;;;;;;;;;;-140.72;100.00;52472.03;6276823;22;20307;-67
2023/08/19 02:09:25;;;;;;;;;;;;;;;-140.72;100.00;52435.50;6276791;22;20324;-67
2023/08/19 02:11:57;;;;;;;;;;;;;;;-140.72;100.00;52465.94;6276931;22;19911;-67
2023/08/19 02:14:30;;;;;;;;;;;;;;;-140.72;100.00;52433.47;6276955;22;19911;-67
2023/08/19 02:16:56;;;;;;;;;;;;;;;-140.72;100.00;52459.84;6274860;22;20228;-68
2023/08/19 02:19:21;;;;;;;;;;;;;;;-140.72;100.00;52455.78;6270910;22;19939;-67
2023/08/19 02:21:47;;;;;;;;;;;;;;;-140.72;100.00;52467.97;6276118;22;19981;-68
2023/08/19 02:24:12;;;;;;;;;;;;;;;-140.72;100.00;52461.88;6276104;22;19911;-68
2023/08/19 02:26:37;;;;;;;;;;;;;;;-140.72;100.00;52461.88;6276526;22;19911;-68
2023/08/19 02:29:03;;;;;;;;;;;;;;;-140.72;100.00;52455.78;6277062;22;19922;-68
2023/08/19 02:31:28;;;;;;;;;;;;;;;-140.72;100.00;52459.84;6276684;22;19911;-67
2023/08/19 02:33:53;;;;;;;;;;;;;;;-140.72;100.00;52478.13;6274924;22;20248;-67
2023/08/19 02:36:19;;;;;;;;;;;;;;;-140.72;100.00;52474.06;6276547;22;19911;-68
2023/08/19 02:38:46;;;;;;;;;;;;;;;-140.72;100.00;52445.66;6274635;22;19918;-68
2023/08/19 02:41:11;;;;;;;;;;;;;;;-140.72;100.00;52461.88;6276881;22;19911;-68
2023/08/19 02:43:44;;;;;;;;;;;;;;;-140.72;100.00;52451.72;6276734;22;20302;-66
2023/08/19 02:46:10;;;;;;;;;;;;;;;-140.72;100.00;52447.69;6277189;22;19915;-68
2023/08/19 02:48:35;;;;;;;;;;;;;;;-140.72;100.00;52472.03;6300634;22;19924;-68
2023/08/19 02:51:00;;;;;;;;;;;;;;;-140.72;100.00;52457.81;6276607;22;19918;-67
2023/08/19 02:53:27;;;;;;;;;;;;;;;-140.72;100.00;52463.91;6276871;22;19911;-67
2023/08/19 02:55:53;;;;;;;;;;;;;;;-140.72;100.00;52457.81;6276948;22;19943;-66
2023/08/19 02:58:18;;;;;;;;;;;;;;;-140.72;100.00;52474.06;6276560;22;19915;-68
2023/08/19 03:00:49;;;;;;;;;;;;;;;-140.72;100.00;52439.56;6276493;22;19918;-67
2023/08/19 03:03:14;;;;;;;;;;;;;;;-140.72;100.00;52433.47;6276177;22;19964;-68
2023/08/19 03:05:40;;;;;;;;;;;;;;;-140.72;100.00;52467.97;6274682;22;19949;-67
2023/08/19 03:08:06;;;;;;;;;;;;;;;-140.72;100.00;52472.03;6276332;22;19969;-67
2023/08/19 03:10:35;;;;;;;;;;;;;;;-140.72;100.00;52463.91;6276477;22;19911;-67
2023/08/19 03:13:00;;;;;;;;;;;;;;;-140.72;100.00;52474.06;6276695;22;19915;-67
2023/08/19 03:15:26;;;;;;;;;;;;;;;-140.72;100.00;52439.56;6276276;22;19961;-67
2023/08/19 03:17:51;;;;;;;;;;;;;;;-140.72;100.00;52478.13;6276610;22;19911;-67
2023/08/19 03:20:16;;;;;;;;;;;;;;;-140.72;100.00;52500.44;6276593;22;20346;-68
2023/08/19 03:22:42;;;;;;;;;;;;;;;-140.72;100.00;52484.19;6300803;22;19911;-68
2023/08/19 03:25:07;;;;;;;;;;;;;;;-140.72;100.00;52474.06;6276518;22;20253;-68
2023/08/19 03:27:32;;;;;;;;;;;;;;;-140.72;100.00;52480.16;6276275;22;19973;-68
2023/08/19 03:29:57;;;;;;;;;;;;;;;-140.72;100.00;52504.50;6278040;22;19982;-68
2023/08/19 03:32:23;;;;;;;;;;;;;;;-140.72;100.00;52480.16;6302737;22;20336;-68
2023/08/19 03:34:48;;;;;;;;;;;;;;;-140.72;100.00;52467.97;6302587;22;20316;-68
2023/08/19 03:37:13;;;;;;;;;;;;;;;-140.72;100.00;52467.97;6302400;22;19912;-68
2023/08/19 03:39:38;;;;;;;;;;;;;;;-140.72;100.00;52496.38;6278161;22;19911;-68
2023/08/19 03:42:04;;;;;;;;;;;;;;;-140.72;100.00;52470.00;6278155;22;19912;-67
2023/08/19 03:44:29;;;;;;;;;;;;;;;-140.72;100.00;52476.09;6278461;22;19933;-67
2023/08/19 03:46:54;;;;;;;;;;;;;;;-140.72;100.00;52522.75;6278293;22;19990;-67
2023/08/19 03:49:20;;;;;;;;;;;;;;;-140.72;100.00;52482.16;6276882;22;19949;-67
2023/08/19 03:51:45;;;;;;;;;;;;;;;-140.72;100.00;52478.13;6303036;22;19953;-67
2023/08/19 03:54:10;;;;;;;;;;;;;;;-140.72;100.00;52492.31;6278261;22;19911;-68
2023/08/19 03:56:36;;;;;;;;;;;;;;;-140.72;100.00;52476.09;6278423;22;19915;-67
2023/08/19 03:59:01;;;;;;;;;;;;;;;-140.72;100.00;52476.09;6302106;22;20385;-67
2023/08/19 04:01:26;;;;;;;;;;;;;;;-140.72;100.00;52463.91;6276361;22;20323;-67
2023/08/19 04:03:51;;;;;;;;;;;;;;;-140.72;100.00;52478.13;6278081;22;20324;-67
2023/08/19 04:06:16;;;;;;;;;;;;;;;-140.72;100.00;52465.94;6278146;22;19912;-68
2023/08/19 04:08:42;;;;;;;;;;;;;;;-140.72;100.00;52476.09;6278102;22;20247;-67
2023/08/19 04:11:07;;;;;;;;;;;;;;;-140.72;100.00;52459.84;6302138;22;20320;-67
2023/08/19 04:13:33;;;;;;;;;;;;;;;-140.72;100.00;52490.28;6277835;22;19915;-67
2023/08/19 04:16:04;;;;;;;;;;;;;;;-140.72;100.00;52472.03;6278202;22;19911;-67
2023/08/19 04:18:30;;;;;;;;;;;;;;;-140.72;100.00;52449.72;6276544;22;20351;-68
2023/08/19 04:20:56;;;;;;;;;;;;;;;-140.72;100.00;52484.19;6301630;22;19964;-67
2023/08/19 04:23:21;;;;;;;;;;;;;;;-140.72;100.00;52457.81;6278159;22;19991;-68
2023/08/19 04:25:46;;;;;;;;;;;;;;;-140.72;100.00;52484.19;6302077;22;20244;-68
2023/08/19 04:28:14;;;;;;;;;;;;;;;-140.72;100.00;52492.31;6276049;22;20353;-67
2023/08/19 04:30:39;;;;;;;;;;;;;;;-140.72;100.00;52484.19;6278426;22;19912;-68
2023/08/19 04:33:05;;;;;;;;;;;;;;;-140.72;100.00;52478.13;6277868;22;19912;-68
2023/08/19 04:35:30;;;;;;;;;;;;;;;-140.72;100.00;52459.84;6277597;22;20324;-68
2023/08/19 04:37:55;;;;;;;;;;;;;;;-140.72;100.00;52494.34;6277908;22;19955;-68
2023/08/19 04:40:20;;;;;;;;;;;;;;;-140.72;100.00;52480.16;6277491;22;19911;-70
2023/08/19 04:42:49;;;;;;;;;;;;;;;-140.72;100.00;52486.22;6277772;22;19922;-68
2023/08/19 04:45:16;;;;;;;;;;;;;;;-140.72;100.00;52472.03;6275876;22;19911;-69
2023/08/19 04:47:41;;;;;;;;;;;;;;;-140.72;100.00;52494.34;6277930;22;20401;-68
2023/08/19 04:50:08;;;;;;;;;;;;;;;-140.72;100.00;52465.94;6277622;22;19915;-68
2023/08/19 04:52:34;;;;;;;;;;;;;;;-140.72;100.00;52467.97;6278035;22;19912;-69
2023/08/19 04:54:59;;;;;;;;;;;;;;;-140.72;100.00;52500.44;6277604;22;19912;-70
2023/08/19 04:57:24;;;;;;;;;;;;;;;-140.72;100.00;52472.03;6302349;22;19996;-72
2023/08/19 04:59:49;;;;;;;;;;;;;;;-140.72;100.00;52488.25;6277814;22;20374;-71
2023/08/19 05:02:14;;;;;;;;;;;;;;;-140.72;100.00;52447.69;6277170;22;19917;-74
2023/08/19 05:04:40;;;;;;;;;;;;;;;-140.72;100.00;52423.31;6276119;22;19911;-72
2023/08/19 05:07:05;;;;;;;;;;;;;;;-140.72;100.00;52467.97;6302267;22;19911;-72
2023/08/19 05:09:30;;;;;;;;;;;;;;;-140.72;100.00;52472.03;6301896;22;19911;-72
2023/08/19 05:11:56;;;;;;;;;;;;;;;-140.72;100.00;52518.69;6277260;22;19922;-72
2023/08/19 05:14:22;;;;;;;;;;;;;;;-140.72;100.00;52457.81;6301946;22;19918;-72
2023/08/19 05:16:47;;;;;;;;;;;;;;;-140.72;100.00;52465.94;6277378;22;19911;-72
2023/08/19 05:19:17;;;;;;;;;;;;;;;-140.72;100.00;52467.97;6277820;22;19946;-72
2023/08/19 05:21:43;;;;;;;;;;;;;;;-140.72;100.00;52516.66;6276389;22;19982;-72
2023/08/19 05:24:09;;;;;;;;;;;;;;;-140.72;100.00;52470.00;6277636;22;19911;-72
2023/08/19 05:26:34;;;;;;;;;;;;;;;-140.72;100.00;52484.19;6278258;22;19912;-72
2023/08/19 05:29:00;;;;;;;;;;;;;;;-140.72;100.00;52492.31;6276505;22;20395;-72
2023/08/19 05:31:25;;;;;;;;;;;;;;;-140.72;100.00;52465.94;6277705;22;19919;-72
2023/08/19 05:33:50;;;;;;;;;;;;;;;-140.72;100.00;52463.91;6277372;22;19918;-70
2023/08/19 05:36:17;;;;;;;;;;;;;;;-140.72;100.00;52463.91;6277433;22;20016;-71
2023/08/19 05:38:43;;;;;;;;;;;;;;;-140.72;100.00;52484.19;6277853;22;19982;-71
2023/08/19 05:41:08;;;;;;;;;;;;;;;-140.72;100.00;52490.28;6277154;22;19938;-69
2023/08/19 05:43:33;;;;;;;;;;;;;;;-140.72;100.00;52502.47;6276499;22;19918;-70
2023/08/19 05:45:59;;;;;;;;;;;;;;;-140.72;100.00;52465.94;6275723;22;20291;-70
2023/08/19 05:48:24;;;;;;;;;;;;;;;-140.72;100.00;52467.97;6277385;22;19911;-72
2023/08/19 05:50:49;;;;;;;;;;;;;;;-140.72;100.00;52496.38;6300949;22;19911;-69
2023/08/19 05:53:24;;;;;;;;;;;;;;;-140.72;100.00;52478.13;6276279;22;19911;-70
2023/08/19 05:55:50;;;;;;;;;;;;;;;-140.72;100.00;52463.91;6277318;22;20324;-69
2023/08/19 05:58:15;;;;;;;;;;;;;;;-140.72;100.00;52478.13;6277105;22;19918;-69
2023/08/19 06:00:41;;;;;;;;;;;;;;;-140.72;100.00;52463.91;6276884;22;19912;-69
2023/08/19 06:03:07;;;;;;;;;;;;;;;-140.72;100.00;52461.88;6275029;22;19922;-69
2023/08/19 06:05:34;;;;;;;;;;;;;;;-140.72;100.00;52461.88;6276669;22;20332;-70
2023/08/19 06:07:59;;;;;;;;;;;;;;;-140.72;100.00;52457.81;6276026;22;19911;-69
2023/08/19 06:10:25;;;;;;;;;;;;;;;-140.72;100.00;52453.75;6276343;22;19911;-69
2023/08/19 06:12:50;;;;;;;;;;;;;;;-140.72;100.00;52447.69;6276523;22;19911;-69
2023/08/19 06:15:15;;;;;;;;;;;;;;;-140.72;100.00;52443.63;6276613;22;20320;-70
2023/08/19 06:17:40;;;;;;;;;;;;;;;-140.72;100.00;52429.41;6276457;22;19911;-70
2023/08/19 06:20:06;;;;;;;;;;;;;;;-140.72;100.00;52398.97;6276152;22;19958;-69
2023/08/19 06:22:32;;;;;;;;;;;;;;;-140.72;100.00;52435.50;6274967;22;19986;-69
2023/08/19 06:24:57;;;;;;;;;;;;;;;-140.72;100.00;52455.78;6276440;22;19919;-69
2023/08/19 06:27:22;;;;;;;;;;;;;;;-140.72;100.00;52421.28;6276436;22;19918;-69
2023/08/19 06:29:47;;;;;;;;;;;;;;;-140.72;100.00;52407.09;6276267;22;19922;-70
2023/08/19 06:32:13;;;;;;;;;;;;;;;-140.72;100.00;52439.56;6276357;22;19923;-69
2023/08/19 06:34:38;;;;;;;;;;;;;;;-140.72;100.00;52451.72;6274291;22;19922;-69
2023/08/19 06:37:04;;;;;;;;;;;;;;;-140.72;100.00;52443.63;6276114;22;19957;-69
2023/08/19 06:39:30;;;;;;;;;;;;;;;-140.72;100.00;52415.22;6276957;22;19918;-69
2023/08/19 06:42:01;;;;;;;;;;;;;;;-140.72;100.00;52407.09;6275480;22;19917;-69
2023/08/19 06:44:29;;;;;;;;;;;;;;;-140.72;100.00;52451.72;6274771;22;20114;-69
2023/08/19 06:46:55;;;;;;;;;;;;;;;-140.72;100.00;52443.63;6276702;22;19912;-69
2023/08/19 06:49:21;;;;;;;;;;;;;;;-140.72;100.00;52384.78;6276642;22;19957;-69
2023/08/19 06:51:46;;;;;;;;;;;;;;;-140.72;100.00;52415.22;6276747;22;19977;-69
2023/08/19 06:54:12;;;;;;;;;;;;;;;-140.72;100.00;52419.28;6276322;22;19911;-69
2023/08/19 06:56:40;;;;;;;;;;;;;;;-140.72;100.00;52451.72;6275296;22;19911;-69
2023/08/19 06:59:18;;;;;;;;;;;;;;;-140.72;100.00;52451.72;6276511;22;19912;-69
2023/08/19 07:01:46;;;;;;;;;;;;;;;-140.72;100.00;52461.88;6277143;22;19917;-69
2023/08/19 07:04:13;;;;;;;;;;;;;;;-140.72;100.00;52423.31;6276536;22;19918;-70
2023/08/19 07:06:39;;;;;;;;;;;;;;;-140.72;100.00;52427.38;6277375;22;19911;-68
2023/08/19 07:09:06;;;;;;;;;;;;;;;-140.72;100.00;52472.03;6278377;22;20018;-70
2023/08/19 07:11:32;;;;;;;;;;;;;;;-140.72;100.00;52427.38;6279407;22;19918;-71
2023/08/19 07:13:57;;;;;;;;;;;;;;;-140.72;100.00;52409.13;6279704;22;19911;-70
2023/08/19 07:16:33;;;;;;;;;;;;;;;-140.72;100.00;52398.97;6278623;22;19911;-74
2023/08/19 07:19:01;;;;;;;;;;;;;;;-140.72;100.00;52401.00;6304458;22;19919;-69
2023/08/19 07:21:26;;;;;;;;;;;;;;;-140.72;100.00;52370.56;6279315;22;19938;-69
2023/08/19 07:23:53;;;;;;;;;;;;;;;-140.72;100.00;52403.03;6277861;22;19911;-69
2023/08/19 07:26:19;;;;;;;;;;;;;;;-140.72;100.00;52376.66;6279347;22;19911;-69
2023/08/19 07:28:44;;;;;;;;;;;;;;;-140.72;100.00;52386.81;6278978;22;19916;-68
2023/08/19 07:31:11;;;;;;;;;;;;;;;-140.72;100.00;52384.78;6279604;22;19923;-67
2023/08/19 07:33:36;;;;;;;;;;;;;;;-140.72;100.00;52382.75;6280323;22;19911;-68
2023/08/19 07:36:01;;;;;;;;;;;;;;;-140.72;100.00;52382.75;6279477;22;19942;-67
2023/08/19 07:38:31;;;;;;;;;;;;;;;-140.72;100.00;52384.78;6278620;22;19922;-68
2023/08/19 07:40:56;;;;;;;;;;;;;;;-140.72;100.00;52370.56;6278403;22;19922;-68
2023/08/19 07:43:21;;;;;;;;;;;;;;;-140.72;100.00;52358.41;6279480;22;19911;-68
2023/08/19 07:45:46;;;;;;;;;;;;;;;-140.72;100.00;52372.59;6281493;22;19925;-68
2023/08/19 07:48:12;;;;;;;;;;;;;;;-140.72;100.00;52396.94;6279270;22;19915;-69
2023/08/19 07:50:37;;;;;;;;;;;;;;;-140.72;100.00;52384.78;6280428;22;19970;-69
2023/08/19 07:53:02;;;;;;;;;;;;;;;-140.72;100.00;52344.19;6281443;22;19961;-69
2023/08/19 07:55:28;;;;;;;;;;;;;;;-140.72;100.00;52342.16;6281725;22;20323;-69
2023/08/19 07:57:54;;;;;;;;;;;;;;;-140.72;100.00;52366.50;6276916;22;20354;-68
2023/08/19 08:00:21;;;;;;;;;;;;;;;-140.72;100.00;52368.53;6278211;22;19912;-69
2023/08/19 08:02:46;;;;;;;;;;;;;;;-140.72;100.00;52378.69;6279177;22;20005;-69
2023/08/19 08:05:13;;;;;;;;;;;;;;;-140.72;100.00;52354.34;6277549;22;20358;-68
2023/08/19 08:07:56;;;;;;;;;;;;;;;-140.72;100.00;52366.50;6277833;22;20248;-68
2023/08/19 08:10:21;;;;;;;;;;;;;;;-140.72;100.00;52390.84;6277607;22;19918;-69
2023/08/19 08:12:47;;;;;;;;;;;;;;;-140.72;100.00;52390.84;6278044;22;19915;-69
2023/08/19 08:15:12;;;;;;;;;;;;;;;-140.72;100.00;52388.84;6277246;22;19912;-68
2023/08/19 08:17:38;;;;;;;;;;;;;;;-140.72;100.00;52354.34;6301912;22;20000;-69
2023/08/19 08:20:03;;;;;;;;;;;;;;;-140.72;100.00;52378.69;6277950;22;19912;-69
2023/08/19 08:22:28;;;;;;;;;;;;;;;-140.72;100.00;52354.34;6277826;22;20393;-69
2023/08/19 08:24:55;;;;;;;;;;;;;;;-140.72;100.00;52338.09;6277487;22;19915;-69
2023/08/19 08:27:20;;;;;;;;;;;;;;;-140.72;100.00;52346.22;6277565;22;19912;-69
2023/08/19 08:29:45;;;;;;;;;;;;;;;-140.72;100.00;52346.22;6277301;22;19926;-69
2023/08/19 08:32:11;;;;;;;;;;;;;;;-140.72;100.00;52370.56;6277973;22;20041;-68
2023/08/19 08:34:53;;;;;;;;;;;;;;;-140.72;100.00;52338.09;6277895;22;19965;-68
2023/08/19 08:37:19;;;;;;;;;;;;;;;-140.72;100.00;52352.31;6277621;22;20245;-68
2023/08/19 08:39:44;;;;;;;;;;;;;;;-140.72;100.00;52309.69;6277813;22;19998;-77
2023/08/19 08:42:19;;;;;;;;;;;;;;;-140.72;100.00;52323.91;6310454;22;19990;-77
2023/08/19 08:44:46;;;;;;;;;;;;;;;-140.72;100.00;52289.41;6281725;22;19916;-78
2023/08/19 08:47:13;;;;;;;;;;;;;;;-140.72;100.00;52263.03;6280936;22;19950;-77
2023/08/19 08:49:38;;;;;;;;;;;;;;;-140.72;100.00;52295.50;6279035;22;19911;-78
2023/08/19 08:52:19;;;;;;;;;;;;;;;-140.72;100.00;52334.03;6282607;22;19986;-76
2023/08/19 08:54:45;;;;;;;;;;;;;;;-140.72;100.00;52297.53;6277537;22;19918;-77
2023/08/19 08:57:12;;;;;;;;;;;;;;;-140.72;100.00;52281.28;6276977;22;19990;-77
2023/08/19 08:59:37;;;;;;;;;;;;;;;-140.72;100.00;52289.41;6277431;22;19918;-77
2023/08/19 09:02:03;;;;;;;;;;;;;;;-140.72;100.00;52309.69;6277682;22;19911;-76
2023/08/19 09:04:30;;;;;;;;;;;;;;;-140.72;100.00;52305.63;6279965;22;19912;-77
2023/08/19 09:07:07;;;;;;;;;;;;;;;-140.72;100.00;52277.22;6280134;22;20324;-77
2023/08/19 09:09:33;;;;;;;;;;;;;;;-140.72;100.00;52311.72;6279073;22;20248;-77
2023/08/19 09:12:00;;;;;;;;;;;;;;;-140.72;100.00;52305.63;6279646;22;19911;-77
2023/08/19 09:17:29;;;;;;;;;;;;;;;-140.72;100.00;52279.25;6289353;22;19930;-79
2023/08/19 09:19:55;;;;;;;;;;;;;;;-140.72;100.00;52297.53;6277109;22;19911;-77
2023/08/19 09:22:21;;;;;;;;;;;;;;;-140.72;100.00;52295.50;6276787;22;20020;-77
2023/08/19 09:24:47;;;;;;;;;;;;;;;-140.72;100.00;52281.28;6276473;22;19915;-77
2023/08/19 09:27:16;;;;;;;;;;;;;;;-140.72;100.00;52301.59;6275529;22;20004;-77
2023/08/19 09:29:50;;;;;;;;;;;;;;;-140.72;100.00;52283.31;6275626;22;19916;-76
2023/08/19 09:32:15;;;;;;;;;;;;;;;-140.72;100.00;52273.19;6276767;22;19950;-77
2023/08/19 09:34:40;;;;;;;;;;;;;;;-140.72;100.00;52271.16;6303108;22;19912;-78
2023/08/19 09:37:07;;;;;;;;;;;;;;;-140.72;100.00;52254.91;6279375;22;20381;-78
2023/08/19 09:39:33;;;;;;;;;;;;;;;-140.72;82.14;52242.75;6281383;22;19939;-77
2023/08/19 09:41:58;;;;;;;;;;;;;;;-140.72;58.90;52269.13;6282199;22;20226;-78
2023/08/19 09:44:40;;;;;;;;;;;;;;;-140.72;38.86;52224.47;6278202;22;20011;-76
2023/08/19 09:47:06;;;;;;;;;;;;;;;-140.72;3.21;52194.03;6280135;22;19911;-77
2023/08/19 09:49:35;;;;;;;;;;;;;;;-140.72;0.00;52218.38;6283819;22;19917;-77
2023/08/19 09:52:00;;;;;;;;;;;;;;;-140.72;0.00;52153.47;6285474;22;19915;-77
2023/08/19 09:54:25;;;;;;;;;;;;;;;-140.72;0.00;52171.72;6280823;22;19911;-77
2023/08/19 09:57:01;;;;;;;;;;;;;;;-140.72;0.00;52106.78;6282628;22;19911;-80
2023/08/19 09:59:27;;;;;;;;;;;;;;;-140.72;0.00;52139.25;6281705;22;19915;-77
2023/08/19 10:01:55;;;;;;;;;;;;;;;-140.72;0.00;52208.25;6278775;22;19918;-78
2023/08/19 10:04:20;;;;;;;;;;;;;;;-140.72;0.00;52258.97;6281896;22;19912;-78
2023/08/19 10:06:50;;;;;;;;;;;;;;;-140.72;0.00;52299.56;6279078;22;19915;-78
2023/08/19 10:09:19;;;;;;;;;;;;;;;-140.72;0.00;52305.63;6278822;22;20267;-80
2023/08/19 10:11:45;;;;;;;;;;;;;;;-140.72;0.00;52291.44;6279616;22;19911;-79
2023/08/19 10:14:16;;;;;;;;;;;;;;;-140.72;0.00;52311.72;6280040;22;19919;-77
2023/08/19 10:16:44;;;;;;;;;;;;;;;-140.72;16.03;52307.66;6256600;22;19941;-81
2023/08/19 10:19:12;;;;;;;;;;;;;;;-140.72;47.10;52297.53;6284579;22;19918;-77
2023/08/19 10:21:39;;;;;;;;;;;;;;;-140.72;16.98;52303.59;6278206;22;19915;-77
2023/08/19 10:24:05;;;;;;;;;;;;;;;-140.72;10.66;52277.22;6278795;22;19938;-77
2023/08/19 10:26:31;;;;;;;;;;;;;;;-140.72;1.96;52285.34;6277685;22;19911;-74
2023/08/19 10:29:07;;;;;;;;;;;;;;;-140.72;0.00;52273.19;6276378;22;19919;-73
2023/08/19 10:31:51;;;;;;;;;;;;;;;-140.72;0.00;52265.06;6277126;22;19938;-76
2023/08/19 10:34:19;;;;;;;;;;;;;;;-140.72;0.00;52242.75;6276425;22;19988;-76
2023/08/19 10:37:03;;;;;;;;;;;;;;;-140.72;0.00;52183.91;6276154;22;19992;-74
2023/08/19 10:39:29;;;;;;;;;;;;;;;-140.72;0.00;52183.91;6282285;22;19919;-74
2023/08/19 10:41:55;;;;;;;;;;;;;;;-140.72;0.00;52214.34;6280375;22;19911;-76
2023/08/19 10:44:27;;;;;;;;;;;;;;;-140.72;0.00;52216.34;6276547;22;19965;-80
2023/08/19 10:47:06;;;;;;;;;;;;;;;-140.72;0.00;52267.09;6278566;22;19911;-76
2023/08/19 10:49:34;;;;;;;;;;;;;;;-140.72;0.00;52289.41;6275365;22;19911;-70
2023/08/19 10:52:00;;;;;;;;;;;;;;;-140.72;0.00;52309.69;6276820;22;19911;-69
2023/08/19 10:54:44;;;;;;;;;;;;;;;-140.72;0.00;52301.59;6277110;22;19912;-73
2023/08/19 10:57:43;;;;;;;;;;;;;;;-140.72;0.00;52327.97;6275617;22;19911;-74
2023/08/19 11:00:11;;;;;;;;;;;;;;;-140.72;0.00;52315.78;6275320;22;19918;-69
2023/08/19 11:02:44;;;;;;;;;;;;;;;-140.72;0.00;52330.00;6277031;22;19958;-67
2023/08/19 11:05:09;;;;;;;;;;;;;;;-140.72;0.00;52358.41;6276900;22;19911;-68
2023/08/19 11:07:34;;;;;;;;;;;;;;;-140.72;2.17;52360.44;6301132;22;19949;-67
2023/08/19 11:09:59;;;;;;;;;;;;;;;-140.72;16.88;52346.22;6276513;22;19966;-67
2023/08/19 11:12:29;;;;;;;;;;;;;;;-140.72;15.87;52374.63;6276713;22;19941;-69
2023/08/19 11:14:55;;;;;;;;;;;;;;;-140.72;7.84;52374.63;6276463;22;19911;-68
2023/08/19 11:17:28;;;;;;;;;;;;;;;-140.72;0.00;52362.44;6276534;22;19919;-68
2023/08/19 11:19:54;;;;;;;;;;;;;;;-140.72;0.00;52352.31;6276188;22;19918;-67
2023/08/19 11:22:21;;;;;;;;;;;;;;;-140.72;0.00;52342.16;6300575;22;19943;-67
2023/08/19 11:24:46;;;;;;;;;;;;;;;-140.72;0.00;52356.38;6301141;22;19911;-69
2023/08/19 11:27:13;;;;;;;;;;;;;;;-140.72;0.00;52352.31;6276334;22;19982;-69
2023/08/19 11:29:38;;;;;;;;;;;;;;;-140.72;0.00;52382.75;6276280;22;19915;-69
2023/08/19 11:32:04;;;;;;;;;;;;;;;-140.72;0.00;52386.81;6276685;22;19998;-67
2023/08/19 11:34:29;;;;;;;;;;;;;;;-140.72;0.00;52394.91;6274256;22;20255;-68
2023/08/19 11:36:54;;;;;;;;;;;;;;;-140.72;0.00;52390.84;6275153;22;20239;-67
2023/08/19 11:39:20;;;;;;;;;;;;;;;-140.72;0.00;52425.34;6275391;22;20239;-70
2023/08/19 11:41:47;;;;;;;;;;;;;;;-140.72;0.00;52390.84;6276629;22;19918;-67
2023/08/19 11:44:12;;;;;;;;;;;;;;;-140.72;0.00;52413.19;6276891;22;19911;-68
2023/08/19 11:46:38;;;;;;;;;;;;;;;-140.72;0.00;52398.97;6276181;22;19912;-68
2023/08/19 11:49:07;;;;;;;;;;;;;;;-140.72;0.00;52398.97;6277308;22;20342;-67
2023/08/19 11:51:35;;;;;;;;;;;;;;;-140.72;0.00;52398.97;6278903;22;19911;-67
2023/08/19 11:54:01;;;;;;;;;;;;;;;-140.72;0.00;52386.81;6279020;22;19994;-69
2023/08/19 11:56:26;;;;;;;;;;;;;;;-140.72;0.00;52394.91;6278744;22;19915;-69
2023/08/19 11:58:52;;;;;;;;;;;;;;;-140.72;0.00;52401.00;6277954;22;20434;-68
2023/08/19 12:01:18;;;;;;;;;;;;;;;-140.72;0.00;52449.72;6276966;22;19911;-67
2023/08/19 12:03:44;;;;;;;;;;;;;;;-140.72;0.00;52419.28;6278020;22;19934;-67
2023/08/19 12:06:10;;;;;;;;;;;;;;;-140.72;0.00;52457.81;6278470;22;19915;-67
2023/08/19 12:08:38;;;;;;;;;;;;;;;-140.72;0.00;52445.66;6278270;22;19922;-68
2023/08/19 12:11:03;;;;;;;;;;;;;;;-140.72;0.00;52421.28;6281982;22;19912;-67
2023/08/19 12:13:28;;;;;;;;;;;;;;;-140.72;0.00;52407.09;6279849;22;20225;-68
2023/08/19 12:15:55;;;;;;;;;;;;;;;-140.72;0.00;52431.44;6278916;22;19911;-68
2023/08/19 12:18:21;;;;;;;;;;;;;;;-140.72;0.00;52427.38;6278482;22;19916;-68
2023/08/19 12:20:47;;;;;;;;;;;;;;;-140.72;0.00;52453.75;6279089;22;20354;-67
2023/08/19 12:23:12;;;;;;;;;;;;;;;-140.72;0.00;52480.16;6278842;22;19919;-68